createdAt,value
2023-03-22T00:00:30.214Z,7.49
2023-03-22T00:05:58.638Z,6.07
2023-03-22T00:11:03.035Z,5.17
2023-03-22T00:16:07.168Z,4.50
2023-03-22T00:21:16.158Z,3.97
2023-03-22T00:26:19.249Z,4.45
2023-03-22T00:31:22.364Z,6.91
2023-03-22T00:36:26.350Z,8.54
2023-03-22T00:41:29.464Z,9.51
2023-03-22T00:46:32.553Z,9.36
2023-03-22T00:51:35.791Z,7.40
2023-03-22T00:56:38.814Z,6.14
2023-03-22T01:01:41.883Z,5.28
2023-03-22T01:06:45.095Z,4.67
2023-03-22T01:11:48.194Z,5.22
2023-03-22T01:16:51.877Z,7.74
2023-03-22T01:21:55.736Z,9.25
2023-03-22T01:26:58.855Z,10.21
2023-03-22T01:32:02.153Z,10.88
2023-03-22T01:37:05.370Z,10.46
2023-03-22T01:42:14.504Z,8.44
2023-03-22T01:47:17.620Z,7.06
2023-03-22T01:52:20.829Z,6.19
2023-03-22T01:57:24.826Z,5.57
2023-03-22T02:02:31.174Z,5.09
2023-03-22T02:07:34.457Z,5.65
2023-03-22T02:13:27.634Z,8.15
2023-03-22T02:19:21.018Z,9.86
2023-03-22T02:24:30.071Z,10.71
2023-03-22T02:29:48.837Z,10.35
2023-03-22T02:35:13.544Z,8.21
2023-03-22T02:41:01.301Z,6.76
2023-03-22T02:46:23.587Z,5.67
2023-03-22T02:51:46.115Z,4.96
2023-03-22T02:57:00.699Z,5.41
2023-03-22T03:02:05.880Z,7.72
2023-03-22T03:07:14.555Z,9.10
2023-03-22T03:12:25.313Z,9.95
2023-03-22T03:18:05.235Z,9.63
2023-03-22T03:23:28.846Z,7.33
2023-03-22T03:29:06.354Z,6.03
2023-03-22T03:34:27.827Z,5.06
2023-03-22T03:39:37.335Z,4.38
2023-03-22T03:44:41.707Z,4.85
2023-03-22T03:49:44.811Z,7.37
2023-03-22T03:54:48.015Z,8.97
2023-03-22T03:59:51.091Z,10.00
2023-03-22T04:04:54.092Z,10.78
2023-03-22T04:09:57.226Z,10.30
2023-03-22T04:15:00.680Z,8.17
2023-03-22T04:20:06.356Z,6.75
2023-03-22T04:25:13.350Z,5.84
2023-03-22T04:30:19.252Z,5.24
2023-03-22T04:35:23.308Z,5.68
2023-03-22T04:40:27.238Z,8.23
2023-03-22T04:45:32.622Z,9.84
2023-03-22T04:50:35.689Z,10.79
2023-03-22T04:55:39.104Z,11.52
2023-03-22T05:00:42.514Z,11.24
2023-03-22T05:05:57.089Z,9.33
2023-03-22T05:11:08.390Z,8.01
2023-03-22T05:16:12.451Z,7.15
2023-03-22T05:21:22.248Z,6.55
2023-03-22T05:26:27.248Z,7.04
2023-03-22T05:31:30.874Z,9.34
2023-03-22T05:36:36.725Z,10.75
2023-03-22T05:41:39.809Z,11.63
2023-03-22T05:46:42.888Z,12.23
2023-03-22T05:51:46.133Z,12.66
2023-03-22T05:56:49.441Z,12.10
2023-03-22T06:01:52.629Z,10.00
2023-03-22T06:06:56.706Z,8.60
2023-03-22T06:11:59.884Z,7.81
2023-03-22T06:17:03.762Z,7.32
2023-03-22T06:22:06.820Z,7.89
2023-03-22T06:27:10.863Z,10.25
2023-03-22T06:32:13.954Z,11.67
2023-03-22T06:37:17.255Z,12.49
2023-03-22T06:42:20.574Z,12.95
2023-03-22T06:47:25.020Z,13.26
2023-03-22T06:52:28.102Z,12.10
2023-03-22T06:57:31.426Z,10.08
2023-03-22T07:02:34.531Z,9.74
2023-03-22T07:07:38.053Z,11.55
2023-03-22T07:12:41.873Z,12.52
2023-03-22T07:17:45.410Z,13.11
2023-03-22T07:22:51.412Z,13.49
2023-03-22T07:27:54.497Z,13.79
2023-03-22T07:32:57.566Z,13.16
2023-03-22T07:38:01.420Z,10.97
2023-03-22T07:43:04.500Z,9.66
2023-03-22T07:48:11.532Z,9.76
2023-03-22T07:53:15.124Z,11.83
2023-03-22T07:58:18.337Z,12.95
2023-03-22T08:03:22.491Z,13.60
2023-03-22T08:08:26.708Z,14.08
2023-03-22T08:13:30.511Z,14.43
2023-03-22T08:18:33.720Z,13.82
2023-03-22T08:23:41.824Z,11.60
2023-03-22T08:28:45.773Z,10.15
2023-03-22T08:33:49.512Z,9.31
2023-03-22T08:38:53.331Z,9.72
2023-03-22T08:43:56.663Z,11.99
2023-03-22T08:49:01.395Z,13.34
2023-03-22T08:54:05.604Z,14.07
2023-03-22T08:59:10.471Z,14.54
2023-03-22T09:04:14.272Z,14.03
2023-03-22T09:09:17.689Z,11.98
2023-03-22T09:14:21.000Z,10.54
2023-03-22T09:19:24.201Z,10.53
2023-03-22T09:24:27.308Z,12.45
2023-03-22T09:29:31.412Z,13.56
2023-03-22T09:34:34.685Z,14.17
2023-03-22T09:39:38.692Z,14.51
2023-03-22T09:44:46.287Z,14.78
2023-03-22T09:50:01.702Z,14.48
2023-03-22T09:55:20.892Z,12.43
2023-03-22T10:00:53.777Z,11.01
2023-03-22T10:06:29.397Z,11.25
2023-03-22T10:11:46.215Z,13.38
2023-03-22T10:16:56.445Z,14.38
2023-03-22T10:22:04.122Z,14.98
2023-03-22T10:27:20.932Z,15.36
2023-03-22T10:32:56.490Z,14.65
2023-03-22T10:38:07.402Z,12.33
2023-03-22T10:43:33.398Z,12.08
2023-03-22T10:48:47.915Z,13.96
2023-03-22T10:53:55.268Z,14.87
2023-03-22T10:58:58.694Z,15.42
2023-03-22T11:04:17.492Z,15.76
2023-03-22T11:09:24.558Z,15.00
2023-03-22T11:14:36.903Z,12.78
2023-03-22T11:19:52.074Z,11.48
2023-03-22T11:24:57.166Z,11.72
2023-03-22T11:30:23.923Z,13.74
2023-03-22T11:35:29.770Z,14.89
2023-03-22T11:40:37.062Z,15.51
2023-03-22T11:45:44.398Z,15.94
2023-03-22T11:50:49.073Z,15.42
2023-03-22T11:55:57.373Z,13.26
2023-03-22T12:01:04.072Z,12.83
2023-03-22T12:06:26.692Z,14.41
2023-03-22T12:11:39.000Z,15.26
2023-03-22T12:16:56.445Z,15.80
2023-03-22T12:22:00.381Z,16.12
2023-03-22T12:27:27.383Z,15.70
2023-03-22T12:32:38.756Z,13.51
2023-03-22T12:37:48.176Z,13.14
2023-03-22T12:43:24.100Z,14.87
2023-03-22T12:48:33.570Z,15.83
2023-03-22T12:53:52.567Z,16.24
2023-03-22T12:59:03.704Z,16.15
2023-03-22T13:04:26.057Z,14.10
2023-03-22T13:09:50.465Z,13.80
2023-03-22T13:15:13.878Z,15.63
2023-03-22T13:20:20.328Z,16.57
2023-03-22T13:25:39.800Z,16.27
2023-03-22T13:30:59.019Z,14.12
2023-03-22T13:36:32.212Z,12.79
2023-03-22T13:41:36.766Z,14.03
2023-03-22T13:46:39.941Z,15.52
2023-03-22T13:51:44.951Z,16.27
2023-03-22T13:56:56.756Z,16.76
2023-03-22T14:02:22.491Z,17.05
2023-03-22T14:07:40.399Z,16.34
2023-03-22T14:13:25.733Z,14.34
2023-03-22T14:18:32.810Z,13.28
